Time;durP1;ratioP1;P1;durP2;ratioP2;P2;SDS_P1;SDS_P2;PMS_P1;PMS_P2;Temp;Humidity;BMP_temperature;BMP_pressure;BME280_temperature;BME280_humidity;BME280_pressure;Samples;Min_cycle;Max_cycle;Signal;HPM_P1;HPM_P2
2021/07/29 00:00:56;;;;;;;4.68;3.17;;;32.60;76.70;;;;;;6252297;23;20180;-92
2021/07/29 00:03:27;;;;;;;3.20;2.88;;;32.00;77.10;;;;;;6270181;22;20167;-93
2021/07/29 00:05:58;;;;;;;4.88;3.00;;;31.50;78.50;;;;;;6272447;22;20164;-93
2021/07/29 00:08:29;;;;;;;3.40;3.08;;;31.70;80.20;;;;;;6269519;22;20190;-93
2021/07/29 00:11:02;;;;;;;3.10;2.80;;;32.00;82.00;;;;;;6265477;22;20175;-92
2021/07/29 00:13:33;;;;;;;3.83;3.28;;;32.30;81.20;;;;;;6248181;23;20192;-94
2021/07/29 00:16:07;;;;;;;3.17;2.85;;;32.80;79.40;;;;;;6223715;23;20641;-94
2021/07/29 00:21:26;;;;;;;4.95;2.95;;;32.90;80.60;;;;;;6248498;23;20637;-94
2021/07/29 00:23:57;;;;;;;3.70;2.72;;;33.20;80.80;;;;;;6248482;23;20183;-93
2021/07/29 00:26:28;;;;;;;5.68;3.20;;;33.40;79.40;;;;;;6248831;23;20164;-94
2021/07/29 00:29:00;;;;;;;3.53;2.72;;;33.40;80.50;;;;;;6249198;23;20179;-94
2021/07/29 00:31:33;;;;;;;5.30;3.05;;;33.20;80.60;;;;;;6247215;23;20543;-91
2021/07/29 00:34:08;;;;;;;3.30;3.00;;;33.40;80.60;;;;;;6248260;23;20687;-94
2021/07/29 00:36:38;;;;;;;6.25;2.80;;;33.00;79.50;;;;;;6247463;23;20254;-95
2021/07/29 00:39:10;;;;;;;4.53;3.38;;;32.50;80.80;;;;;;6226546;22;20207;-94
2021/07/29 00:41:41;;;;;;;3.63;2.95;;;32.60;80.60;;;;;;6246721;23;20175;-94
2021/07/29 00:44:12;;;;;;;4.85;3.00;;;32.60;81.90;;;;;;6249014;23;20175;-94
2021/07/29 00:46:47;;;;;;;4.85;3.10;;;32.80;80.80;;;;;;6223014;23;20224;-93
2021/07/29 00:49:18;;;;;;;10.02;8.82;;;32.80;82.90;;;;;;6247583;23;20249;-94
2021/07/29 00:51:49;;;;;;;5.30;3.42;;;32.70;83.00;;;;;;6246556;23;20650;-94
2021/07/29 00:54:23;;;;;;;4.15;2.65;;;32.80;83.20;;;;;;6247708;23;20574;-95
2021/07/29 00:56:54;;;;;;;5.18;3.08;;;32.90;82.50;;;;;;6247852;23;20199;-93
2021/07/29 00:59:26;;;;;;;5.47;3.08;;;32.90;82.40;;;;;;6247670;23;20234;-94
2021/07/29 01:01:59;;;;;;;4.75;2.60;;;32.80;80.50;;;;;;6247136;23;20183;-93
2021/07/29 01:04:30;;;;;;;4.05;3.00;;;32.90;80.30;;;;;;6248186;23;20203;-93
2021/07/29 01:07:01;;;;;;;5.65;3.20;;;32.90;81.30;;;;;;6247737;23;20198;-93
2021/07/29 01:09:32;;;;;;;3.78;3.10;;;33.10;79.50;;;;;;6249887;23;20819;-91
2021/07/29 01:12:03;;;;;;;5.60;2.80;;;33.20;79.50;;;;;;6245650;23;20175;-92
2021/07/29 01:14:34;;;;;;;3.20;2.70;;;33.40;78.50;;;;;;6247232;23;20682;-92
2021/07/29 01:17:07;;;;;;;4.80;2.85;;;33.80;76.40;;;;;;6247843;23;20214;-91
2021/07/29 01:19:38;;;;;;;5.85;3.05;;;34.10;74.60;;;;;;6246914;23;20838;-91
2021/07/29 01:22:11;;;;;;;3.13;2.50;;;34.50;75.20;;;;;;6247846;23;20172;-94
2021/07/29 01:24:42;;;;;;;5.63;3.65;;;34.60;72.20;;;;;;6248061;23;20176;-91
2021/07/29 01:27:13;;;;;;;4.03;2.40;;;34.70;73.40;;;;;;6248948;23;20172;-91
2021/07/29 01:29:44;;;;;;;3.40;2.97;;;35.00;71.60;;;;;;6247644;23;20221;-92
2021/07/29 01:32:15;;;;;;;5.43;2.70;;;35.10;70.80;;;;;;6246195;23;20179;-91
2021/07/29 01:34:46;;;;;;;3.30;2.85;;;34.90;73.60;;;;;;6247568;23;20195;-91
2021/07/29 01:37:20;;;;;;;3.53;2.85;;;35.00;73.10;;;;;;6221806;23;20318;-92
2021/07/29 01:39:51;;;;;;;3.95;3.38;;;35.20;71.20;;;;;;6248362;23;20654;-92
2021/07/29 01:42:21;;;;;;;6.00;3.30;;;35.10;71.90;;;;;;6246876;23;20184;-91
2021/07/29 01:44:53;;;;;;;5.35;3.65;;;34.90;72.80;;;;;;6247865;23;20164;-91
2021/07/29 01:47:24;;;;;;;5.00;2.83;;;35.20;72.60;;;;;;6247043;23;20229;-92
2021/07/29 01:49:56;;;;;;;3.33;2.78;;;35.20;71.60;;;;;;6249304;23;20187;-91
2021/07/29 01:52:28;;;;;;;3.42;3.10;;;35.50;71.10;;;;;;6245985;23;20184;-92
2021/07/29 01:54:59;;;;;;;3.55;3.03;;;35.40;70.50;;;;;;6247294;23;20506;-92
2021/07/29 01:57:30;;;;;;;6.63;5.47;;;35.00;72.20;;;;;;6247554;23;20250;-94
2021/07/29 02:00:02;;;;;;;4.63;2.88;;;34.20;73.80;;;;;;6246868;23;20196;-92
2021/07/29 02:02:34;;;;;;;2.97;2.58;;;33.90;71.70;;;;;;6247006;23;20207;-92
2021/07/29 02:05:06;;;;;;;4.03;2.83;;;33.80;72.10;;;;;;6247660;23;20173;-92
2021/07/29 02:07:39;;;;;;;4.50;3.03;;;33.60;73.80;;;;;;6221296;23;20198;-92
2021/07/29 02:10:11;;;;;;;4.68;2.63;;;33.70;72.60;;;;;;6247242;23;20630;-93
2021/07/29 02:12:42;;;;;;;4.75;3.35;;;33.20;73.50;;;;;;6245498;23;20176;-96
2021/07/29 02:15:14;;;;;;;4.53;3.05;;;32.40;73.90;;;;;;6247073;23;20226;-94
2021/07/29 02:17:46;;;;;;;3.55;3.08;;;31.60;75.10;;;;;;6221912;23;20175;-94
2021/07/29 02:20:18;;;;;;;4.47;3.15;;;31.00;76.80;;;;;;6247321;23;20187;-95
2021/07/29 02:22:51;;;;;;;5.60;3.25;;;30.50;76.40;;;;;;6247108;23;20246;-94
2021/07/29 02:25:23;;;;;;;3.33;2.72;;;30.00;78.30;;;;;;6248191;23;20694;-93
2021/07/29 02:27:54;;;;;;;3.85;2.75;;;29.70;77.90;;;;;;6248703;23;20187;-94
2021/07/29 02:30:25;;;;;;;4.25;2.80;;;29.50;79.90;;;;;;6252326;23;20186;-95
2021/07/29 02:32:56;;;;;;;5.13;2.50;;;29.20;80.50;;;;;;6269767;23;20184;-94
2021/07/29 02:35:27;;;;;;;5.53;3.27;;;29.00;81.90;;;;;;6244857;23;20191;-94
2021/07/29 02:38:00;;;;;;;3.53;2.87;;;28.80;84.20;;;;;;6262696;23;20210;-94
2021/07/29 02:40:31;;;;;;;5.93;3.20;;;28.60;83.60;;;;;;6255254;23;20195;-94
2021/07/29 02:43:02;;;;;;;4.60;2.97;;;28.50;84.50;;;;;;6255988;23;20199;-94
2021/07/29 02:45:33;;;;;;;4.37;2.87;;;28.40;84.80;;;;;;6252615;23;20168;-94
2021/07/29 02:48:05;;;;;;;4.83;3.43;;;28.20;86.40;;;;;;6248279;23;20218;-93
2021/07/29 02:50:36;;;;;;;5.23;3.23;;;28.10;87.60;;;;;;6250513;23;20186;-94
2021/07/29 02:53:09;;;;;;;3.33;2.73;;;27.80;87.80;;;;;;6248767;23;20610;-93
2021/07/29 02:55:40;;;;;;;5.70;3.03;;;27.70;86.20;;;;;;6250653;23;20190;-93
2021/07/29 02:58:11;;;;;;;5.27;3.07;;;27.60;86.50;;;;;;6249315;23;20199;-93
2021/07/29 03:00:42;;;;;;;5.57;3.90;;;27.50;86.70;;;;;;6251412;23;20294;-94
2021/07/29 03:03:13;;;;;;;4.03;2.90;;;27.30;88.00;;;;;;6249784;23;20250;-93
2021/07/29 03:05:45;;;;;;;3.93;2.80;;;27.20;86.70;;;;;;6250488;23;20206;-94
2021/07/29 03:08:18;;;;;;;3.47;2.80;;;27.20;89.40;;;;;;6251602;23;20676;-93
2021/07/29 03:10:50;;;;;;;3.57;3.00;;;27.00;90.10;;;;;;6248665;23;20179;-95
2021/07/29 03:13:24;;;;;;;5.97;3.70;;;26.80;89.00;;;;;;6246613;23;20219;-94
2021/07/29 03:15:55;;;;;;;6.30;3.10;;;26.70;90.80;;;;;;6247013;23;20179;-94
2021/07/29 03:18:26;;;;;;;17.67;6.30;;;26.60;90.40;;;;;;6246743;23;20610;-93
2021/07/29 03:20:58;;;;;;;11.40;6.57;;;26.30;97.30;;;;;;6247611;23;20191;-92
2021/07/29 03:23:36;;;;;;;8.43;3.97;;;26.00;97.90;;;;;;6244977;23;20183;-94
2021/07/29 03:26:09;;;;;;;11.43;4.53;;;25.70;96.40;;;;;;6249151;23;20198;-92
2021/07/29 03:28:40;;;;;;;3.60;2.80;;;25.40;95.50;;;;;;6252154;23;20167;-93
2021/07/29 03:31:11;;;;;;;3.53;3.00;;;25.30;93.50;;;;;;6248384;23;20175;-92
2021/07/29 03:33:45;;;;;;;4.40;3.30;;;25.20;92.20;;;;;;6247600;23;20176;-93
2021/07/29 03:36:16;;;;;;;4.60;2.90;;;25.10;94.40;;;;;;6248175;23;20255;-93
2021/07/29 03:38:49;;;;;;;4.47;2.97;;;25.00;94.90;;;;;;6249307;23;20181;-92
2021/07/29 03:41:19;;;;;;;3.43;3.00;;;24.90;94.80;;;;;;6248982;23;20271;-93
2021/07/29 03:43:53;;;;;;;3.33;2.70;;;24.80;93.70;;;;;;6248650;23;20195;-93
2021/07/29 03:46:24;;;;;;;5.10;3.07;;;24.70;91.40;;;;;;6248579;23;20488;-93
2021/07/29 03:48:58;;;;;;;4.30;2.97;;;24.60;92.30;;;;;;6222320;23;20168;-93
2021/07/29 03:51:29;;;;;;;3.80;2.40;;;24.50;90.50;;;;;;6247410;23;20197;-94
2021/07/29 03:54:02;;;;;;;5.27;2.50;;;24.50;90.20;;;;;;6248005;23;20199;-92
2021/07/29 03:56:33;;;;;;;5.73;2.77;;;24.40;90.30;;;;;;6247942;23;20235;-93
2021/07/29 03:59:04;;;;;;;3.60;2.40;;;24.40;89.80;;;;;;6247982;23;20164;-94
2021/07/29 04:01:35;;;;;;;7.07;2.17;;;24.20;90.10;;;;;;6247272;23;20223;-95
2021/07/29 04:04:06;;;;;;;4.00;2.30;;;24.10;89.90;;;;;;6248212;23;20195;-93
2021/07/29 04:06:37;;;;;;;3.67;2.10;;;23.90;91.40;;;;;;6250266;23;20180;-96
2021/07/29 04:09:12;;;;;;;2.93;2.27;;;23.70;91.70;;;;;;6222455;23;20183;-92
2021/07/29 04:11:43;;;;;;;3.80;2.20;;;23.50;91.90;;;;;;6249098;23;20694;-93
2021/07/29 04:14:14;;;;;;;6.57;2.20;;;23.40;93.30;;;;;;6223166;23;20223;-93
2021/07/29 04:16:45;;;;;;;3.23;2.10;;;23.20;93.50;;;;;;6250390;23;20605;-92
2021/07/29 04:19:16;;;;;;;7.27;2.10;;;23.10;92.80;;;;;;6250569;23;20210;-93
2021/07/29 04:21:47;;;;;;;4.40;2.23;;;23.00;92.40;;;;;;6259463;23;20218;-93
2021/07/29 04:24:21;;;;;;;3.63;2.00;;;22.90;92.60;;;;;;6215627;23;20164;-91
2021/07/29 04:26:52;;;;;;;2.60;2.10;;;22.80;93.10;;;;;;6267674;23;20192;-94
2021/07/29 04:29:23;;;;;;;2.37;1.93;;;22.70;93.40;;;;;;6261004;23;20190;-94
2021/07/29 04:31:55;;;;;;;3.73;2.30;;;22.60;94.10;;;;;;6256014;23;20198;-93
2021/07/29 04:34:26;;;;;;;6.13;2.13;;;22.50;94.30;;;;;;6259241;23;20204;-93
2021/07/29 04:36:57;;;;;;;5.13;2.20;;;22.40;94.50;;;;;;6243263;22;20176;-94
2021/07/29 04:39:31;;;;;;;2.93;2.10;;;22.40;94.80;;;;;;6273065;22;20191;-93
2021/07/29 04:42:03;;;;;;;2.53;1.87;;;22.30;94.90;;;;;;6244379;22;20199;-93
2021/07/29 04:44:35;;;;;;;4.53;2.67;;;22.20;95.10;;;;;;6271741;23;20168;-93
2021/07/29 04:47:07;;;;;;;2.60;2.07;;;22.20;96.30;;;;;;6241975;23;20195;-94
2021/07/29 04:49:40;;;;;;;2.70;1.93;;;22.00;97.40;;;;;;6265495;23;20269;-94
2021/07/29 04:52:11;;;;;;;2.83;1.90;;;21.90;97.50;;;;;;6252304;23;20187;-94
2021/07/29 04:54:43;;;;;;;2.10;1.47;;;21.80;97.40;;;;;;6256474;22;20202;-93
2021/07/29 04:57:14;;;;;;;5.63;1.93;;;21.70;98.30;;;;;;6273612;22;20168;-92
2021/07/29 04:59:45;;;;;;;2.33;1.60;;;21.60;98.50;;;;;;6274290;22;20160;-93
2021/07/29 05:02:19;;;;;;;1.73;1.50;;;21.60;98.90;;;;;;6261620;22;20204;-94
2021/07/29 05:04:50;;;;;;;6.47;2.57;;;21.40;99.20;;;;;;6254515;23;20175;-94
2021/07/29 05:07:21;;;;;;;7.40;2.20;;;21.40;99.90;;;;;;6267141;22;20182;-92
2021/07/29 05:09:54;;;;;;;3.63;1.73;;;21.30;99.90;;;;;;6263320;23;20255;-93
2021/07/29 05:12:25;;;;;;;5.43;1.97;;;21.10;99.90;;;;;;6257385;23;20188;-94
2021/07/29 05:14:58;;;;;;;5.77;1.80;;;21.00;99.90;;;;;;6257889;23;20211;-94
2021/07/29 05:17:29;;;;;;;3.23;1.50;;;21.00;99.90;;;;;;6254792;23;20199;-94
2021/07/29 05:20:00;;;;;;;2.17;1.40;;;20.90;99.90;;;;;;6252238;23;20191;-93
2021/07/29 05:22:32;;;;;;;2.70;1.10;;;20.70;99.90;;;;;;6247688;23;20196;-92
2021/07/29 05:25:06;;;;;;;3.00;1.33;;;20.70;99.90;;;;;;6248666;23;20168;-91
2021/07/29 05:27:37;;;;;;;3.13;1.47;;;20.60;99.90;;;;;;6224111;23;20247;-92
2021/07/29 05:30:08;;;;;;;2.80;0.97;;;20.50;99.90;;;;;;6248946;23;20179;-91
2021/07/29 05:32:40;;;;;;;3.77;1.07;;;20.40;99.90;;;;;;6220635;23;20538;-92
2021/07/29 05:35:12;;;;;;;1.10;1.00;;;20.30;99.90;;;;;;6221268;23;20172;-92
2021/07/29 05:37:43;;;;;;;3.20;1.50;;;20.30;99.90;;;;;;6247980;23;20207;-92
2021/07/29 05:40:16;;;;;;;2.00;1.33;;;20.20;99.90;;;;;;6247659;23;20168;-92
2021/07/29 05:42:47;;;;;;;1.67;1.30;;;20.10;99.90;;;;;;6246114;23;20203;-92
2021/07/29 05:45:18;;;;;;;1.57;1.10;;;20.10;99.90;;;;;;6247215;23;20175;-92
2021/07/29 05:47:50;;;;;;;2.93;1.50;;;20.00;99.90;;;;;;6247233;23;20214;-95
2021/07/29 05:50:21;;;;;;;2.23;1.30;;;19.90;99.90;;;;;;6247770;23;20662;-93
2021/07/29 05:52:52;;;;;;;2.47;1.40;;;19.80;99.90;;;;;;6220340;23;20195;-93
2021/07/29 05:55:25;;;;;;;1.40;1.10;;;19.80;99.90;;;;;;6247295;23;20195;-93
2021/07/29 05:57:56;;;;;;;2.23;1.17;;;19.80;99.90;;;;;;6248905;23;20218;-94
2021/07/29 06:00:27;;;;;;;1.50;1.30;;;19.70;99.90;;;;;;6247901;23;20179;-94
2021/07/29 06:03:01;;;;;;;2.33;1.30;;;19.60;99.90;;;;;;6247391;23;20192;-94
2021/07/29 06:05:33;;;;;;;5.17;1.50;;;19.60;99.90;;;;;;6248821;23;20203;-94
2021/07/29 06:08:07;;;;;;;2.27;1.33;;;19.60;99.90;;;;;;6223781;23;20262;-94
2021/07/29 06:10:40;;;;;;;2.57;1.23;;;19.50;99.90;;;;;;6221672;23;20198;-95
2021/07/29 06:13:11;;;;;;;3.33;1.27;;;19.50;99.90;;;;;;6220119;23;20258;-95
2021/07/29 06:15:42;;;;;;;5.20;1.50;;;19.40;99.90;;;;;;6246415;23;20255;-95
2021/07/29 06:18:13;;;;;;;3.70;1.60;;;19.40;99.90;;;;;;6248045;23;20175;-93
2021/07/29 06:20:44;;;;;;;5.33;1.60;;;19.30;99.90;;;;;;6247207;23;20191;-93
2021/07/29 06:23:15;;;;;;;4.50;1.80;;;19.30;99.90;;;;;;6246253;23;20226;-94
2021/07/29 06:25:48;;;;;;;3.93;1.77;;;19.20;99.90;;;;;;6248574;23;20196;-93
2021/07/29 06:28:19;;;;;;;4.57;1.80;;;19.20;99.90;;;;;;6248450;23;20191;-94
2021/07/29 06:30:50;;;;;;;4.13;1.77;;;19.20;99.90;;;;;;6250495;23;20199;-91
2021/07/29 06:33:20;;;;;;;4.57;1.97;;;19.20;99.90;;;;;;6247407;23;20183;-93
2021/07/29 06:36:04;;;;;;;4.63;1.90;;;19.10;99.90;;;;;;6246548;23;20199;-93
2021/07/29 06:38:37;;;;;;;3.07;1.90;;;19.10;99.90;;;;;;6247345;23;20206;-93
2021/07/29 06:41:11;;;;;;;2.40;1.70;;;19.10;99.90;;;;;;6247669;23;20203;-92
2021/07/29 06:43:42;;;;;;;3.37;1.80;;;19.10;99.90;;;;;;6248459;23;20646;-93
2021/07/29 06:46:13;;;;;;;5.77;2.10;;;19.00;99.90;;;;;;6247639;23;20254;-93
2021/07/29 06:48:44;;;;;;;3.70;1.90;;;19.00;99.90;;;;;;6247104;23;20259;-93
2021/07/29 06:51:17;;;;;;;3.57;1.90;;;19.00;99.90;;;;;;6222367;23;20224;-93
2021/07/29 06:53:48;;;;;;;4.63;1.90;;;18.90;99.90;;;;;;6247274;23;20196;-92
2021/07/29 06:56:21;;;;;;;3.67;2.23;;;19.00;99.90;;;;;;6248058;23;20565;-93
2021/07/29 06:58:52;;;;;;;3.93;1.80;;;18.90;99.90;;;;;;6247564;23;20546;-94
2021/07/29 07:01:25;;;;;;;3.60;2.00;;;18.90;99.90;;;;;;6247684;23;20183;-93
2021/07/29 07:03:56;;;;;;;4.00;1.83;;;18.80;99.90;;;;;;6245776;23;20176;-94
2021/07/29 07:06:27;;;;;;;4.30;1.90;;;18.80;99.90;;;;;;6249765;23;20210;-93
2021/07/29 07:09:00;;;;;;;3.67;1.90;;;18.80;99.90;;;;;;6249099;23;20175;-93
2021/07/29 07:11:32;;;;;;;3.93;2.07;;;18.70;99.90;;;;;;6246562;23;20218;-94
2021/07/29 07:14:06;;;;;;;2.83;2.00;;;18.70;99.90;;;;;;6247690;23;20531;-93
2021/07/29 07:16:38;;;;;;;3.73;1.90;;;18.60;99.90;;;;;;6248124;23;20175;-93
2021/07/29 07:19:09;;;;;;;4.00;2.10;;;18.60;99.90;;;;;;6272580;22;20201;-94
2021/07/29 07:21:40;;;;;;;5.13;2.20;;;18.50;99.90;;;;;;6271615;22;20172;-94
2021/07/29 07:24:11;;;;;;;4.43;1.83;;;18.50;99.90;;;;;;6270727;22;20227;-95
2021/07/29 07:26:46;;;;;;;4.77;1.80;;;18.50;99.90;;;;;;6266808;23;20160;-95
2021/07/29 07:29:18;;;;;;;3.73;2.37;;;18.50;99.90;;;;;;6237403;23;20168;-94
2021/07/29 07:31:49;;;;;;;3.23;2.07;;;18.50;99.90;;;;;;6221172;23;20240;-94
2021/07/29 07:34:20;;;;;;;3.10;1.87;;;18.50;99.90;;;;;;6247219;23;20211;-95
2021/07/29 07:36:52;;;;;;;2.83;1.80;;;18.50;99.90;;;;;;6247617;23;20642;-94
2021/07/29 07:39:23;;;;;;;2.63;1.80;;;18.40;99.90;;;;;;6247007;23;20250;-94
2021/07/29 07:41:57;;;;;;;2.70;1.43;;;18.40;99.90;;;;;;6245781;23;20192;-94
2021/07/29 07:44:28;;;;;;;2.63;2.00;;;18.50;99.90;;;;;;6254015;23;20175;-93
2021/07/29 07:46:59;;;;;;;4.67;1.60;;;18.50;99.90;;;;;;6246745;23;20202;-93
2021/07/29 07:49:30;;;;;;;1.90;1.40;;;18.40;99.90;;;;;;6247406;23;20179;-93
2021/07/29 07:52:01;;;;;;;4.47;1.50;;;18.40;99.90;;;;;;6221202;23;20238;-93
2021/07/29 07:54:32;;;;;;;3.53;1.63;;;18.40;99.90;;;;;;6247101;23;20210;-93
2021/07/29 07:57:07;;;;;;;3.50;1.53;;;18.40;99.90;;;;;;6246996;23;20512;-93
2021/07/29 07:59:38;;;;;;;2.23;1.40;;;18.40;99.90;;;;;;6222204;23;20167;-93
2021/07/29 08:02:10;;;;;;;2.50;1.33;;;18.40;99.90;;;;;;6245968;23;20180;-93
2021/07/29 08:04:41;;;;;;;1.43;1.30;;;18.30;99.90;;;;;;6246772;23;20255;-92
2021/07/29 08:07:13;;;;;;;3.80;1.50;;;18.30;99.90;;;;;;6246621;23;20692;-92
2021/07/29 08:09:44;;;;;;;3.23;1.60;;;18.20;99.90;;;;;;6247220;23;20198;-92
2021/07/29 08:12:17;;;;;;;3.73;1.50;;;18.20;99.90;;;;;;6246612;23;20164;-93
2021/07/29 08:14:50;;;;;;;2.00;1.40;;;18.10;99.90;;;;;;6246823;23;20238;-92
2021/07/29 08:17:21;;;;;;;3.10;1.60;;;18.10;99.90;;;;;;6247142;23;20220;-92
2021/07/29 08:19:52;;;;;;;2.93;1.63;;;18.10;99.90;;;;;;6245880;23;20624;-92
2021/07/29 08:22:23;;;;;;;2.50;1.33;;;18.10;99.90;;;;;;6245358;23;20661;-92
2021/07/29 08:24:55;;;;;;;2.90;1.47;;;18.10;99.90;;;;;;6247806;23;20225;-92
2021/07/29 08:27:33;;;;;;;3.80;1.70;;;18.10;99.90;;;;;;6248428;23;20243;-93
2021/07/29 08:30:05;;;;;;;2.33;1.60;;;18.00;99.90;;;;;;6249033;23;20187;-94
2021/07/29 08:32:38;;;;;;;1.97;1.40;;;18.00;99.90;;;;;;6248187;23;20168;-94
2021/07/29 08:35:09;;;;;;;4.47;1.50;;;18.00;99.90;;;;;;6249067;23;20176;-93
2021/07/29 08:37:44;;;;;;;3.33;1.50;;;18.00;99.90;;;;;;6249158;23;20540;-94
2021/07/29 08:40:19;;;;;;;2.03;1.50;;;17.90;99.90;;;;;;6249850;23;20211;-94
2021/07/29 08:42:52;;;;;;;3.40;1.40;;;17.90;99.90;;;;;;6247185;23;20230;-93
2021/07/29 08:45:23;;;;;;;3.20;1.33;;;17.90;99.90;;;;;;6222462;23;20256;-93
2021/07/29 08:47:57;;;;;;;4.70;1.63;;;17.80;99.90;;;;;;6248327;23;20195;-93
2021/07/29 08:50:28;;;;;;;2.20;1.33;;;17.80;99.90;;;;;;6249204;23;20222;-92
2021/07/29 08:52:59;;;;;;;2.77;1.70;;;17.80;99.90;;;;;;6246664;23;20192;-93
2021/07/29 08:55:30;;;;;;;2.60;1.53;;;17.80;99.90;;;;;;6248230;23;20654;-93
2021/07/29 08:58:03;;;;;;;1.90;1.57;;;17.80;99.90;;;;;;6248185;23;20187;-93
2021/07/29 09:00:34;;;;;;;2.50;1.70;;;17.80;99.90;;;;;;6248809;23;20198;-93
2021/07/29 09:03:26;;;;;;;2.17;1.60;;;17.70;99.90;;;;;;6247201;23;20276;-93
2021/07/29 09:06:05;;;;;;;4.23;1.83;;;17.60;99.90;;;;;;6248331;23;20198;-92
2021/07/29 09:08:50;;;;;;;2.20;1.70;;;17.60;99.90;;;;;;6223505;23;20245;-92
2021/07/29 09:11:33;;;;;;;2.47;1.60;;;17.60;99.90;;;;;;6247747;23;20241;-92
2021/07/29 09:14:14;;;;;;;2.43;1.57;;;17.50;99.90;;;;;;6247976;23;20549;-92
2021/07/29 09:16:59;;;;;;;4.30;1.87;;;17.50;99.90;;;;;;6248287;23;20164;-93
2021/07/29 09:19:34;;;;;;;2.47;1.87;;;17.40;99.90;;;;;;6248188;23;20202;-92
2021/07/29 09:22:18;;;;;;;2.37;1.70;;;17.40;99.90;;;;;;6247717;23;20176;-93
2021/07/29 09:25:07;;;;;;;3.97;1.57;;;17.30;99.90;;;;;;6247345;23;20593;-93
2021/07/29 09:27:47;;;;;;;3.03;1.83;;;17.30;99.90;;;;;;6247658;23;20246;-92
2021/07/29 09:30:23;;;;;;;2.67;1.83;;;17.20;99.90;;;;;;6248146;23;20495;-93
2021/07/29 09:33:00;;;;;;;4.17;2.10;;;17.10;99.90;;;;;;6248158;23;20178;-93
2021/07/29 09:35:38;;;;;;;2.97;2.00;;;17.10;99.90;;;;;;6248394;23;20175;-93
2021/07/29 09:38:13;;;;;;;2.67;1.93;;;17.00;99.90;;;;;;6248528;23;20522;-94
2021/07/29 09:40:46;;;;;;;2.47;1.90;;;16.90;99.90;;;;;;6248587;23;20171;-93
2021/07/29 09:43:19;;;;;;;3.97;1.73;;;16.90;99.90;;;;;;6222829;23;20234;-93
2021/07/29 09:45:53;;;;;;;2.77;2.00;;;16.90;99.90;;;;;;6259719;23;20174;-94
2021/07/29 09:48:25;;;;;;;4.63;1.90;;;16.90;99.90;;;;;;6273500;22;20183;-92
2021/07/29 09:50:59;;;;;;;3.47;1.90;;;16.80;99.90;;;;;;6272496;22;20160;-93
2021/07/29 09:53:35;;;;;;;3.63;2.17;;;16.80;99.90;;;;;;6243386;23;20191;-93
2021/07/29 09:56:10;;;;;;;3.20;1.70;;;16.80;99.90;;;;;;6268634;23;20171;-94
2021/07/29 09:59:03;;;;;;;3.53;1.73;;;16.70;99.90;;;;;;6260985;23;20207;-91
2021/07/29 10:01:38;;;;;;;6.17;1.90;;;16.70;99.90;;;;;;6262969;23;20178;-93
2021/07/29 10:04:10;;;;;;;2.27;1.60;;;16.70;99.90;;;;;;6271712;22;20183;-92
2021/07/29 10:06:43;;;;;;;3.30;2.00;;;16.60;99.90;;;;;;6264607;22;20180;-92
2021/07/29 10:09:16;;;;;;;3.77;1.97;;;16.60;99.90;;;;;;6263130;23;20168;-93
2021/07/29 10:11:50;;;;;;;2.77;1.90;;;16.60;99.90;;;;;;6269174;22;20498;-91
2021/07/29 10:14:52;;;;;;;2.70;1.90;;;16.60;99.90;;;;;;6264145;23;20171;-92
2021/07/29 10:18:02;;;;;;;2.80;1.93;;;16.50;99.90;;;;;;6234914;23;20185;-92
2021/07/29 10:20:35;;;;;;;3.37;2.30;;;16.50;99.90;;;;;;6252983;23;20191;-92
2021/07/29 10:23:53;;;;;;;5.50;1.77;;;16.50;99.90;;;;;;6247409;23;20183;-93
2021/07/29 10:26:24;;;;;;;3.43;1.90;;;16.40;99.90;;;;;;6247714;23;20202;-92
2021/07/29 10:29:15;;;;;;;3.20;2.00;;;16.30;99.90;;;;;;6248247;23;20195;-92
2021/07/29 10:31:50;;;;;;;7.50;2.17;;;16.30;99.90;;;;;;6247347;23;20263;-92
2021/07/29 10:34:31;;;;;;;3.07;2.00;;;16.10;99.90;;;;;;6248330;23;20168;-92
2021/07/29 10:37:03;;;;;;;4.70;1.90;;;16.10;99.90;;;;;;6248212;23;20171;-93
2021/07/29 10:39:54;;;;;;;7.67;2.30;;;16.10;99.90;;;;;;6251996;23;20198;-93
2021/07/29 10:42:30;;;;;;;3.30;2.10;;;16.00;99.90;;;;;;6227804;23;20635;-92
2021/07/29 10:45:00;;;;;;;3.87;2.13;;;16.00;99.90;;;;;;6255761;23;20210;-93
2021/07/29 10:47:45;;;;;;;2.87;1.97;;;16.00;99.90;;;;;;6252346;23;20196;-92
2021/07/29 10:50:20;;;;;;;3.77;2.20;;;16.10;99.90;;;;;;6255437;23;20615;-92
2021/07/29 10:52:52;;;;;;;4.50;2.23;;;16.10;99.90;;;;;;6252034;23;20182;-92
2021/07/29 10:55:24;;;;;;;4.93;2.50;;;16.10;99.90;;;;;;6250657;23;20251;-93
2021/07/29 10:58:02;;;;;;;2.90;1.83;;;16.00;99.90;;;;;;6248261;23;20179;-93
2021/07/29 11:00:33;;;;;;;2.67;2.03;;;16.00;99.90;;;;;;6246914;23;20674;-93
2021/07/29 11:03:19;;;;;;;2.47;2.20;;;16.00;99.90;;;;;;6245106;23;20259;-93
2021/07/29 11:06:05;;;;;;;3.07;2.07;;;15.90;99.90;;;;;;6246945;23;20246;-91
2021/07/29 11:08:37;;;;;;;2.67;2.10;;;15.90;99.90;;;;;;6247662;23;20610;-92
2021/07/29 11:11:09;;;;;;;3.67;1.83;;;15.90;99.90;;;;;;6246960;23;20659;-92
2021/07/29 11:13:40;;;;;;;5.03;2.13;;;15.90;99.90;;;;;;6246633;23;20180;-92
2021/07/29 11:16:12;;;;;;;4.13;2.40;;;15.90;99.90;;;;;;6247099;23;20164;-92
2021/07/29 11:18:43;;;;;;;7.80;2.40;;;15.80;99.90;;;;;;6246930;23;20255;-92
2021/07/29 11:21:17;;;;;;;3.53;2.10;;;15.70;99.90;;;;;;6246846;23;20554;-92
2021/07/29 11:23:50;;;;;;;3.00;2.20;;;15.70;99.90;;;;;;6246188;23;20563;-92
2021/07/29 11:26:21;;;;;;;3.20;2.17;;;15.70;99.90;;;;;;6246971;23;20168;-92
2021/07/29 11:29:11;;;;;;;6.40;2.40;;;15.60;99.90;;;;;;6246942;23;20200;-92
2021/07/29 11:31:42;;;;;;;4.93;2.47;;;15.60;99.90;;;;;;6246141;23;20233;-92
2021/07/29 11:34:13;;;;;;;4.60;2.60;;;15.50;99.90;;;;;;6247802;23;20213;-93
2021/07/29 11:36:54;;;;;;;4.53;1.93;;;15.50;99.90;;;;;;6250125;23;20241;-93
2021/07/29 11:39:26;;;;;;;3.67;2.37;;;15.50;99.90;;;;;;6242413;23;20172;-92
2021/07/29 11:41:59;;;;;;;2.33;2.13;;;15.40;99.90;;;;;;6261467;23;20168;-93
2021/07/29 11:44:40;;;;;;;4.33;2.43;;;15.40;99.90;;;;;;6252439;23;20227;-93
2021/07/29 11:47:11;;;;;;;3.23;2.37;;;15.50;99.90;;;;;;6252445;23;20200;-93
2021/07/29 11:49:48;;;;;;;5.37;2.60;;;15.40;99.90;;;;;;6251934;23;20234;-92
2021/07/29 11:52:22;;;;;;;3.13;2.20;;;15.40;99.90;;;;;;6246747;23;20179;-92
2021/07/29 11:55:08;;;;;;;2.23;1.80;;;15.40;99.90;;;;;;6247161;23;20258;-92
2021/07/29 11:57:42;;;;;;;4.43;2.20;;;15.40;99.90;;;;;;6248021;23;20215;-93
2021/07/29 12:00:16;;;;;;;3.83;2.10;;;15.30;99.90;;;;;;6249491;23;20251;-93
2021/07/29 12:02:52;;;;;;;4.77;2.57;;;15.30;99.90;;;;;;6250058;23;20167;-93
2021/07/29 12:05:25;;;;;;;3.57;2.13;;;15.20;99.90;;;;;;6250095;23;20274;-92
2021/07/29 12:07:58;;;;;;;3.70;2.07;;;15.10;99.90;;;;;;6274869;22;20160;-91
2021/07/29 12:10:31;;;;;;;3.90;2.47;;;15.10;99.90;;;;;;6274034;22;20187;-92
2021/07/29 12:13:04;;;;;;;5.47;2.30;;;15.10;99.90;;;;;;6240531;23;20174;-92
2021/07/29 12:15:35;;;;;;;4.97;2.80;;;15.10;99.90;;;;;;6248125;23;20185;-92
2021/07/29 12:18:16;;;;;;;3.67;2.13;;;15.00;99.90;;;;;;6199119;23;20203;-92
2021/07/29 12:20:49;;;;;;;4.33;2.63;;;15.00;99.90;;;;;;6222229;23;20164;-92
2021/07/29 12:23:26;;;;;;;4.67;2.83;;;15.00;99.90;;;;;;6247442;23;20207;-91
2021/07/29 12:26:11;;;;;;;6.07;2.20;;;15.00;99.90;;;;;;6221959;23;20206;-91
2021/07/29 12:28:44;;;;;;;3.87;2.30;;;15.00;99.90;;;;;;6248971;23;20381;-92
2021/07/29 12:31:20;;;;;;;3.03;2.43;;;15.00;99.90;;;;;;6248593;23;20229;-90
2021/07/29 12:33:52;;;;;;;9.10;2.60;;;14.90;99.90;;;;;;6252919;22;20194;-91
2021/07/29 12:36:24;;;;;;;4.93;2.50;;;14.90;99.90;;;;;;6249245;23;20164;-92
2021/07/29 12:39:02;;;;;;;4.23;2.37;;;14.90;99.90;;;;;;6249763;23;20180;-93
2021/07/29 12:41:36;;;;;;;4.13;2.47;;;14.80;99.90;;;;;;6248268;23;20183;-93
2021/07/29 12:44:12;;;;;;;5.90;2.30;;;14.80;99.90;;;;;;6222673;23;20176;-93
2021/07/29 12:46:46;;;;;;;4.13;2.40;;;14.70;99.90;;;;;;6222649;23;20265;-93
2021/07/29 12:49:18;;;;;;;4.53;2.27;;;14.70;99.90;;;;;;6249244;23;20253;-93
2021/07/29 12:51:51;;;;;;;5.80;2.67;;;14.70;99.90;;;;;;6247659;23;20258;-93
2021/07/29 12:54:24;;;;;;;3.27;2.60;;;14.70;99.90;;;;;;6249552;23;20180;-93
2021/07/29 12:57:07;;;;;;;5.33;2.90;;;14.70;99.90;;;;;;6249216;23;20255;-93
2021/07/29 12:59:39;;;;;;;3.07;2.47;;;14.70;99.90;;;;;;6249265;23;20195;-93
2021/07/29 13:02:10;;;;;;;5.73;2.77;;;14.70;99.90;;;;;;6248554;23;20233;-94
2021/07/29 13:04:42;;;;;;;3.87;2.10;;;14.70;99.90;;;;;;6248765;23;20233;-92
2021/07/29 13:07:15;;;;;;;4.97;2.37;;;14.70;99.90;;;;;;6249240;23;20184;-92
2021/07/29 13:09:47;;;;;;;3.53;2.60;;;14.80;99.90;;;;;;6248148;23;20164;-92
2021/07/29 13:12:19;;;;;;;6.43;2.30;;;14.80;99.90;;;;;;6248559;23;20203;-92
2021/07/29 13:14:49;;;;;;;5.23;3.23;;;14.80;99.90;;;;;;6248420;23;20164;-92
2021/07/29 13:17:20;;;;;;;3.50;2.43;;;14.80;99.90;;;;;;6248084;23;20646;-92
2021/07/29 13:19:51;;;;;;;4.20;2.33;;;14.90;99.90;;;;;;6248458;23;20182;-92